Time;durP1;ratioP1;P1;durP2;ratioP2;P2;SDS_P1;SDS_P2;PMS_P1;PMS_P2;Temp;Humidity;BMP_temperature;BMP_pressure;BME280_temperature;BME280_humidity;BME280_pressure;Samples;Min_cycle;Max_cycle;Signal;HPM_P1;HPM_P2
2022/04/24 00:00:46;;;;;;;;;;;;;;;19.13;41.35;100201.19;7283099;19;153110;-63
2022/04/24 00:03:13;;;;;;;;;;;;;;;19.14;41.28;100202.03;7282165;19;154223;-65
2022/04/24 00:05:40;;;;;;;;;;;;;;;19.13;41.47;100209.59;7279457;19;152378;-63
2022/04/24 00:08:08;;;;;;;;;;;;;;;19.10;41.48;100201.84;7283020;19;151985;-64
2022/04/24 00:10:37;;;;;;;;;;;;;;;19.12;41.31;100207.97;7282273;19;154571;-61
2022/04/24 00:13:04;;;;;;;;;;;;;;;19.08;41.60;100204.94;7288316;19;152324;-62
2022/04/24 00:15:30;;;;;;;;;;;;;;;19.13;41.22;100200.38;7280505;19;156305;-65
2022/04/24 00:17:57;;;;;;;;;;;;;;;19.11;41.38;100197.91;7282558;19;151799;-63
2022/04/24 00:20:24;;;;;;;;;;;;;;;19.10;41.29;100213.03;7283531;19;152298;-65
2022/04/24 00:22:51;;;;;;;;;;;;;;;19.09;41.09;100211.38;7280773;19;153946;-66
2022/04/24 00:25:17;;;;;;;;;;;;;;;19.09;41.39;100206.59;7278720;19;151648;-64
2022/04/24 00:27:44;;;;;;;;;;;;;;;19.09;41.23;100203.81;7282089;19;152851;-67
2022/04/24 00:30:11;;;;;;;;;;;;;;;19.07;41.39;100210.88;7278264;19;154545;-65
2022/04/24 00:32:38;;;;;;;;;;;;;;;19.07;41.27;100206.13;7285346;19;152428;-63
2022/04/24 00:35:05;;;;;;;;;;;;;;;19.06;41.24;100204.44;7280709;19;153181;-63
2022/04/24 00:37:32;;;;;;;;;;;;;;;19.06;40.96;100204.44;7281902;19;153111;-63
2022/04/24 00:39:58;;;;;;;;;;;;;;;19.06;41.33;100203.63;7280070;19;152755;-60
2022/04/24 00:42:25;;;;;;;;;;;;;;;19.05;40.95;100213.16;7280313;19;153849;-65
2022/04/24 00:44:52;;;;;;;;;;;;;;;19.04;40.89;100212.31;7278957;19;152150;-65
2022/04/24 00:47:21;;;;;;;;;;;;;;;19.05;40.86;100213.16;7279024;19;154022;-62
2022/04/24 00:49:48;;;;;;;;;;;;;;;19.05;40.83;100210.34;7280044;19;154127;-67
2022/04/24 00:52:15;;;;;;;;;;;;;;;19.04;40.77;100205.91;7281455;19;151888;-66
2022/04/24 00:54:41;;;;;;;;;;;;;;;19.03;41.00;100201.47;7287632;19;153568;-66
2022/04/24 00:57:09;;;;;;;;;;;;;;;19.01;41.12;100218.56;7281472;19;151981;-61
2022/04/24 00:59:37;;;;;;;;;;;;;;;19.01;41.15;100217.72;7279496;19;152985;-63
2022/04/24 01:02:08;;;;;;;;;;;;;;;19.00;41.16;100224.47;7280498;19;155240;-68
2022/04/24 01:04:35;;;;;;;;;;;;;;;19.00;40.73;100228.09;7278271;19;151795;-63
2022/04/24 01:07:03;;;;;;;;;;;;;;;19.00;40.90;100219.69;7281039;19;154197;-64
2022/04/24 01:09:31;;;;;;;;;;;;;;;19.00;40.71;100230.91;7276603;19;153983;-66
2022/04/24 01:11:58;;;;;;;;;;;;;;;18.99;40.78;100229.25;7280579;19;152330;-63
2022/04/24 01:14:25;;;;;;;;;;;;;;;18.99;41.15;100228.41;7277410;19;153697;-65
2022/04/24 01:16:53;;;;;;;;;;;;;;;18.98;40.75;100224.81;7287068;19;154087;-65
2022/04/24 01:19:20;;;;;;;;;;;;;;;18.95;40.95;100225.41;7280310;19;153288;-66
2022/04/24 01:21:47;;;;;;;;;;;;;;;18.97;40.78;100231.53;7279182;19;153973;-62
2022/04/24 01:24:15;;;;;;;;;;;;;;;18.95;40.72;100232.97;7279595;19;152155;-65
2022/04/24 01:26:42;;;;;;;;;;;;;;;18.95;40.70;100228.22;7275453;19;153367;-66
2022/04/24 01:29:11;;;;;;;;;;;;;;;18.96;41.08;100229.03;7279629;19;153663;-65
2022/04/24 01:31:41;;;;;;;;;;;;;;;18.95;40.69;100224.59;7279181;19;151784;-65
2022/04/24 01:34:08;;;;;;;;;;;;;;;18.94;40.59;100240.56;7279970;19;153422;-67
2022/04/24 01:36:35;;;;;;;;;;;;;;;18.92;40.64;100237.25;7278353;19;152176;-65
2022/04/24 01:39:02;;;;;;;;;;;;;;;18.91;40.88;100238.38;7287833;19;152594;-62
2022/04/24 01:41:29;;;;;;;;;;;;;;;18.91;40.77;100232.78;7243162;19;154459;-62
2022/04/24 01:43:55;;;;;;;;;;;;;;;18.92;40.94;100233.63;7278910;19;154866;-64
2022/04/24 01:46:22;;;;;;;;;;;;;;;18.89;41.01;100237.06;7282366;19;152761;-65
2022/04/24 01:48:49;;;;;;;;;;;;;;;18.91;40.88;100235.59;7285095;19;154508;-61
2022/04/24 01:51:16;;;;;;;;;;;;;;;18.89;41.08;100234.25;7283685;19;151522;-63
2022/04/24 01:53:43;;;;;;;;;;;;;;;18.90;40.76;100236.72;7284362;19;152631;-64
2022/04/24 01:56:10;;;;;;;;;;;;;;;18.88;41.09;100241.81;7282981;19;154019;-62
2022/04/24 01:58:37;;;;;;;;;;;;;;;18.87;40.94;100240.16;7285496;19;152614;-64
2022/04/24 02:01:07;;;;;;;;;;;;;;;18.88;41.00;100241.81;7292727;19;153879;-65
2022/04/24 02:03:34;;;;;;;;;;;;;;;18.88;41.13;100241.00;7284870;19;152135;-62
2022/04/24 02:06:02;;;;;;;;;;;;;;;18.87;41.07;100245.75;7282682;19;156882;-67
2022/04/24 02:08:31;;;;;;;;;;;;;;;18.86;41.08;100241.31;7284785;19;153217;-66
2022/04/24 02:10:58;;;;;;;;;;;;;;;18.84;41.07;100232.41;7283694;19;151892;-62
2022/04/24 02:13:25;;;;;;;;;;;;;;;18.87;40.95;100236.53;7281847;19;153353;-61
2022/04/24 02:15:52;;;;;;;;;;;;;;;18.86;41.09;100240.47;7285203;19;153242;-60
2022/04/24 02:18:19;;;;;;;;;;;;;;;18.85;41.16;100245.22;7282646;19;153169;-66
2022/04/24 02:20:45;;;;;;;;;;;;;;;18.84;40.86;100243.59;7286473;19;154799;-63
2022/04/24 02:23:12;;;;;;;;;;;;;;;18.81;40.82;100244.22;7291222;19;153979;-64
2022/04/24 02:25:39;;;;;;;;;;;;;;;18.80;40.75;100236.97;7284353;19;152648;-64
2022/04/24 02:28:05;;;;;;;;;;;;;;;18.80;41.21;100248.19;7284471;19;153961;-60
2022/04/24 02:30:32;;;;;;;;;;;;;;;18.81;40.86;100248.97;7264517;19;153400;-62
2022/04/24 02:33:00;;;;;;;;;;;;;;;18.79;41.02;100249.31;7275588;19;154621;-66
2022/04/24 02:35:27;;;;;;;;;;;;;;;18.81;41.06;100248.97;7283013;19;152540;-64
2022/04/24 02:37:54;;;;;;;;;;;;;;;18.77;40.79;100245.16;7285217;19;152375;-65
2022/04/24 02:40:21;;;;;;;;;;;;;;;18.79;41.13;100252.09;7281617;19;153485;-64
2022/04/24 02:42:51;;;;;;;;;;;;;;;18.77;40.86;100254.38;7284222;19;154999;-62
2022/04/24 02:45:19;;;;;;;;;;;;;;;18.77;40.95;100254.38;7283705;19;153875;-63
2022/04/24 02:47:46;;;;;;;;;;;;;;;18.77;40.81;100251.59;7283377;19;154872;-67
2022/04/24 02:50:13;;;;;;;;;;;;;;;18.76;40.98;100247.13;7284556;19;152944;-68
2022/04/24 02:52:44;;;;;;;;;;;;;;;18.76;40.97;100249.91;7284694;19;152879;-68
2022/04/24 02:55:12;;;;;;;;;;;;;;;18.76;41.12;100246.31;7282915;19;153406;-65
2022/04/24 02:57:39;;;;;;;;;;;;;;;18.74;40.86;100252.22;7281660;19;152439;-65
2022/04/24 03:00:07;;;;;;;;;;;;;;;18.73;40.91;100246.94;7284112;19;154488;-65
2022/04/24 03:02:41;;;;;;;;;;;;;;;18.71;40.84;100247.25;7283123;19;153725;-62
2022/04/24 03:05:12;;;;;;;;;;;;;;;18.71;40.99;100249.22;7289609;19;151778;-61
2022/04/24 03:07:38;;;;;;;;;;;;;;;18.71;41.10;100252.03;7278272;19;153213;-62
2022/04/24 03:10:08;;;;;;;;;;;;;;;18.71;41.26;100246.44;7284489;19;151553;-61
2022/04/24 03:12:38;;;;;;;;;;;;;;;18.70;40.88;100245.59;7283273;19;153328;-64
2022/04/24 03:15:06;;;;;;;;;;;;;;;18.68;40.76;100239.47;7279564;19;154251;-63
2022/04/24 03:17:33;;;;;;;;;;;;;;;18.68;40.86;100239.47;7283731;19;152240;-63
2022/04/24 03:20:00;;;;;;;;;;;;;;;18.70;41.15;100247.56;7286150;19;152846;-66
2022/04/24 03:22:27;;;;;;;;;;;;;;;18.67;41.20;100247.03;7282749;19;156316;-65
2022/04/24 03:24:54;;;;;;;;;;;;;;;18.67;41.05;100244.22;7284383;19;151766;-64
2022/04/24 03:27:21;;;;;;;;;;;;;;;18.64;41.17;100242.06;7287257;19;153864;-67
2022/04/24 03:29:47;;;;;;;;;;;;;;;18.65;40.74;100240.94;7284624;19;151773;-65
2022/04/24 03:32:14;;;;;;;;;;;;;;;18.64;41.20;100244.88;7253297;19;154797;-67
2022/04/24 03:34:47;;;;;;;;;;;;;;;18.66;40.85;100250.16;7278616;19;153001;-67
2022/04/24 03:37:13;;;;;;;;;;;;;;;18.65;40.97;100251.28;7281467;19;152187;-66
2022/04/24 03:39:40;;;;;;;;;;;;;;;18.62;40.99;100251.94;7281917;19;152654;-65
2022/04/24 03:42:07;;;;;;;;;;;;;;;18.63;41.10;100247.97;7280999;19;154024;-63
2022/04/24 03:44:34;;;;;;;;;;;;;;;18.63;40.83;100251.59;7276655;19;151944;-64
2022/04/24 03:47:01;;;;;;;;;;;;;;;18.62;41.23;100257.53;7279939;19;153040;-63
2022/04/24 03:49:27;;;;;;;;;;;;;;;18.60;41.30;100255.03;7286190;19;153758;-63
2022/04/24 03:51:54;;;;;;;;;;;;;;;18.60;41.30;100257.00;7283177;19;153638;-65
2022/04/24 03:54:21;;;;;;;;;;;;;;;18.60;41.24;100260.63;7281364;19;154556;-66
2022/04/24 03:56:48;;;;;;;;;;;;;;;18.60;41.11;100262.59;7282894;19;151746;-63
2022/04/24 03:59:14;;;;;;;;;;;;;;;18.61;41.06;100262.28;7283239;19;152678;-61
2022/04/24 04:01:41;;;;;;;;;;;;;;;18.61;41.03;100270.69;7279348;19;153996;-63
2022/04/24 04:04:09;;;;;;;;;;;;;;;18.60;41.37;100265.38;7283481;19;151719;-62
2022/04/24 04:06:36;;;;;;;;;;;;;;;18.60;41.08;100276.59;7276117;19;151827;-66
2022/04/24 04:09:02;;;;;;;;;;;;;;;18.59;41.18;100270.16;7281303;19;154315;-65
2022/04/24 04:11:29;;;;;;;;;;;;;;;18.58;41.40;100267.66;7289403;19;151968;-60
2022/04/24 04:13:56;;;;;;;;;;;;;;;18.56;41.34;100276.38;7279855;19;154208;-61
2022/04/24 04:16:23;;;;;;;;;;;;;;;18.55;41.00;100274.72;7281690;19;151706;-63
2022/04/24 04:18:49;;;;;;;;;;;;;;;18.56;41.37;100283.94;7280502;19;154211;-62
2022/04/24 04:21:16;;;;;;;;;;;;;;;18.55;41.05;100282.28;7281181;19;155631;-63
2022/04/24 04:23:43;;;;;;;;;;;;;;;18.56;41.22;100281.16;7283018;19;152297;-63
2022/04/24 04:26:10;;;;;;;;;;;;;;;18.53;41.10;100284.56;7281214;19;153071;-63
2022/04/24 04:28:37;;;;;;;;;;;;;;;18.54;41.10;100294.59;7280989;19;153950;-64
2022/04/24 04:31:05;;;;;;;;;;;;;;;18.52;41.57;100297.69;7255732;19;151964;-61
2022/04/24 04:33:36;;;;;;;;;;;;;;;18.53;41.42;100295.78;7282893;19;154267;-64
2022/04/24 04:36:03;;;;;;;;;;;;;;;18.52;41.19;100292.09;7281882;19;151878;-62
2022/04/24 04:38:30;;;;;;;;;;;;;;;18.51;41.25;100298.00;7280637;19;153097;-65
2022/04/24 04:40:57;;;;;;;;;;;;;;;18.52;41.26;100303.28;7279229;19;153375;-62
2022/04/24 04:43:26;;;;;;;;;;;;;;;18.52;41.08;100308.06;7278012;19;152587;-66
2022/04/24 04:45:53;;;;;;;;;;;;;;;18.50;41.53;100307.53;7276359;19;154778;-65
2022/04/24 04:48:20;;;;;;;;;;;;;;;18.51;41.25;100307.22;7274136;19;153387;-67
2022/04/24 04:50:47;;;;;;;;;;;;;;;18.50;41.24;100307.53;7280064;19;151896;-69
2022/04/24 04:53:14;;;;;;;;;;;;;;;18.50;41.30;100311.16;7286092;19;152352;-65
2022/04/24 04:55:42;;;;;;;;;;;;;;;18.50;41.12;100315.91;7279429;19;152313;-63
2022/04/24 04:58:09;;;;;;;;;;;;;;;18.50;41.46;100322.34;7281059;19;152918;-64
2022/04/24 05:00:36;;;;;;;;;;;;;;;18.50;41.34;100327.09;7280235;19;154584;-64
2022/04/24 05:03:03;;;;;;;;;;;;;;;18.49;41.13;100326.28;7278570;19;151740;-65
2022/04/24 05:05:30;;;;;;;;;;;;;;;18.47;41.54;100331.38;7278564;19;153706;-65
2022/04/24 05:07:57;;;;;;;;;;;;;;;18.47;41.35;100339.75;7275213;19;153304;-62
2022/04/24 05:10:24;;;;;;;;;;;;;;;18.50;41.16;100346.69;7278117;19;152562;-65
2022/04/24 05:12:50;;;;;;;;;;;;;;;18.47;41.18;100345.34;7280432;19;153173;-63
2022/04/24 05:15:19;;;;;;;;;;;;;;;18.45;41.59;100356.00;7282054;19;154515;-61
2022/04/24 05:17:45;;;;;;;;;;;;;;;18.45;41.56;100358.81;7285345;19;152832;-64
2022/04/24 05:20:12;;;;;;;;;;;;;;;18.46;41.65;100365.22;7285975;19;152678;-64
2022/04/24 05:22:40;;;;;;;;;;;;;;;18.44;41.24;100359.94;7287349;19;151815;-65
2022/04/24 05:25:09;;;;;;;;;;;;;;;18.44;41.47;100365.53;7284501;19;153195;-61
2022/04/24 05:27:36;;;;;;;;;;;;;;;18.44;41.65;100375.91;7284843;19;153629;-65
2022/04/24 05:30:05;;;;;;;;;;;;;;;18.44;41.26;100375.91;7285390;19;152464;-67
2022/04/24 05:32:39;;;;;;;;;;;;;;;18.42;41.53;100380.97;7284553;19;153236;-64
2022/04/24 05:35:07;;;;;;;;;;;;;;;18.45;41.47;100385.94;7285012;19;153983;-66
2022/04/24 05:37:34;;;;;;;;;;;;;;;18.41;41.42;100384.91;7292384;19;151975;-61
2022/04/24 05:40:01;;;;;;;;;;;;;;;18.42;41.41;100392.16;7285501;19;152287;-65
2022/04/24 05:42:28;;;;;;;;;;;;;;;18.42;41.37;100389.38;7284223;19;152307;-62
2022/04/24 05:44:58;;;;;;;;;;;;;;;18.39;41.78;100393.63;7286888;19;151691;-64
2022/04/24 05:47:25;;;;;;;;;;;;;;;18.40;41.55;100395.25;7281748;19;154196;-65
2022/04/24 05:49:52;;;;;;;;;;;;;;;18.40;41.67;100400.84;7284306;19;152113;-63
2022/04/24 05:52:18;;;;;;;;;;;;;;;18.41;41.60;100399.72;7285456;19;153624;-61
2022/04/24 05:54:45;;;;;;;;;;;;;;;18.41;41.51;100401.69;7285607;19;154142;-66
2022/04/24 05:57:12;;;;;;;;;;;;;;;18.39;41.85;100402.00;7283935;19;152143;-65
2022/04/24 05:59:38;;;;;;;;;;;;;;;18.38;41.60;100405.09;7292878;19;152520;-67
2022/04/24 06:02:06;;;;;;;;;;;;;;;18.37;41.90;100407.06;7285977;19;151668;-67
2022/04/24 06:04:33;;;;;;;;;;;;;;;18.39;41.54;100421.59;7285639;19;153390;-67
2022/04/24 06:06:59;;;;;;;;;;;;;;;18.37;41.81;100414.63;7284635;19;153946;-66
2022/04/24 06:09:26;;;;;;;;;;;;;;;18.36;41.87;100427.78;7285297;19;151819;-66
2022/04/24 06:11:58;;;;;;;;;;;;;;;18.38;41.74;100424.69;7286228;19;154056;-65
2022/04/24 06:14:25;;;;;;;;;;;;;;;18.36;41.65;100418.56;7281682;19;156606;-65
2022/04/24 06:16:52;;;;;;;;;;;;;;;18.37;41.82;100432.25;7283253;19;151878;-65
2022/04/24 06:19:19;;;;;;;;;;;;;;;18.37;42.04;100428.59;7283345;19;155352;-63
2022/04/24 06:21:46;;;;;;;;;;;;;;;18.35;41.97;100431.69;7289518;19;153117;-61
2022/04/24 06:24:15;;;;;;;;;;;;;;;18.35;41.96;100433.69;7285704;19;153368;-62
2022/04/24 06:26:44;;;;;;;;;;;;;;;18.37;42.03;100432.25;7283319;19;154623;-65
2022/04/24 06:29:12;;;;;;;;;;;;;;;18.35;41.93;100431.69;7281336;19;151888;-66
2022/04/24 06:31:39;;;;;;;;;;;;;;;18.34;41.93;100435.66;7285485;19;152389;-66
2022/04/24 06:34:07;;;;;;;;;;;;;;;18.34;42.10;100444.06;7284198;19;153156;-67
2022/04/24 06:36:33;;;;;;;;;;;;;;;18.35;41.96;100451.28;7285330;19;151935;-67
2022/04/24 06:39:00;;;;;;;;;;;;;;;18.37;41.79;100456.56;7285328;19;153318;-64
2022/04/24 06:41:27;;;;;;;;;;;;;;;18.33;42.08;100455.53;7284530;19;153775;-65
2022/04/24 06:43:54;;;;;;;;;;;;;;;18.33;41.88;100463.91;7293298;19;151636;-62
2022/04/24 06:46:23;;;;;;;;;;;;;;;18.32;41.74;100465.06;7283532;19;153365;-67
2022/04/24 06:48:50;;;;;;;;;;;;;;;18.35;41.73;100458.88;7280400;19;152390;-65
2022/04/24 06:51:18;;;;;;;;;;;;;;;18.32;41.77;100454.69;7285622;19;152741;-63
2022/04/24 06:53:45;;;;;;;;;;;;;;;18.32;41.90;100457.50;7282824;19;154944;-64
2022/04/24 06:56:12;;;;;;;;;;;;;;;18.32;42.13;100457.50;7282698;19;151859;-65
2022/04/24 06:58:40;;;;;;;;;;;;;;;18.31;42.03;100455.00;7282506;19;151691;-63
2022/04/24 07:01:15;;;;;;;;;;;;;;;18.33;42.13;100458.31;7283774;19;154068;-64
2022/04/24 07:03:41;;;;;;;;;;;;;;;18.33;42.02;100461.13;7292034;19;151565;-65
2022/04/24 07:06:08;;;;;;;;;;;;;;;18.31;41.91;100461.41;7283607;19;156376;-67
2022/04/24 07:08:35;;;;;;;;;;;;;;;18.31;41.97;100472.59;7279767;19;152372;-59
2022/04/24 07:11:03;;;;;;;;;;;;;;;18.32;41.93;100470.63;7284316;19;151788;-64
2022/04/24 07:13:31;;;;;;;;;;;;;;;18.30;42.14;100473.75;7280965;19;152921;-65
2022/04/24 07:15:58;;;;;;;;;;;;;;;18.29;42.33;100483.28;7284345;19;152037;-66
2022/04/24 07:18:27;;;;;;;;;;;;;;;18.30;42.07;100484.13;7282803;19;154206;-67
2022/04/24 07:20:55;;;;;;;;;;;;;;;18.29;42.13;100490.84;7284583;19;154809;-62
2022/04/24 07:23:22;;;;;;;;;;;;;;;18.32;42.19;100476.25;7283582;19;151702;-68
2022/04/24 07:25:49;;;;;;;;;;;;;;;18.29;42.11;100477.69;7290531;19;152652;-69
2022/04/24 07:28:18;;;;;;;;;;;;;;;18.29;42.18;100483.28;7281864;19;152024;-68
2022/04/24 07:30:45;;;;;;;;;;;;;;;18.28;42.15;100491.97;7284152;19;153538;-65
2022/04/24 07:33:12;;;;;;;;;;;;;;;18.30;42.21;100486.91;7282509;19;154054;-63
2022/04/24 07:35:40;;;;;;;;;;;;;;;18.30;42.35;100486.91;7283760;19;152019;-68
2022/04/24 07:38:07;;;;;;;;;;;;;;;18.28;42.27;100497.56;7283568;19;153453;-66
2022/04/24 07:40:36;;;;;;;;;;;;;;;18.28;42.13;100494.75;7282260;19;153203;-66
2022/04/24 07:43:07;;;;;;;;;;;;;;;18.28;42.19;100489.16;7283297;19;151994;-67
2022/04/24 07:45:40;;;;;;;;;;;;;;;18.29;42.19;100497.25;7283053;19;153729;-67
2022/04/24 07:48:08;;;;;;;;;;;;;;;18.29;42.13;100494.47;7288083;19;155971;-68
2022/04/24 07:50:36;;;;;;;;;;;;;;;18.29;42.09;100493.63;7283564;19;151866;-62
2022/04/24 07:53:03;;;;;;;;;;;;;;;18.28;42.16;100498.41;7278340;19;154487;-67
2022/04/24 07:55:31;;;;;;;;;;;;;;;18.28;42.17;100498.41;7283043;19;152061;-64
2022/04/24 07:57:58;;;;;;;;;;;;;;;18.29;42.08;100502.03;7280770;19;153299;-63
2022/04/24 08:00:26;;;;;;;;;;;;;;;18.29;42.00;100504.81;7282098;19;153825;-64
2022/04/24 08:03:03;;;;;;;;;;;;;;;18.28;42.10;100508.75;7282318;19;152276;-64
2022/04/24 08:05:36;;;;;;;;;;;;;;;18.29;42.23;100504.81;7281265;19;153801;-66
2022/04/24 08:08:05;;;;;;;;;;;;;;;18.27;42.31;100507.91;7279644;19;153196;-67
2022/04/24 08:10:33;;;;;;;;;;;;;;;18.28;41.93;100509.56;7290520;19;151468;-66
2022/04/24 08:13:04;;;;;;;;;;;;;;;18.26;42.34;100503.44;7280173;19;152356;-65
2022/04/24 08:15:33;;;;;;;;;;;;;;;18.27;42.28;100516.31;7283028;19;151961;-67
2022/04/24 08:18:01;;;;;;;;;;;;;;;18.27;42.43;100512.66;7281574;19;153489;-67
2022/04/24 08:20:28;;;;;;;;;;;;;;;18.27;42.36;100513.50;7282022;19;155095;-65
2022/04/24 08:22:57;;;;;;;;;;;;;;;18.27;42.16;100512.66;7282504;19;151970;-64
2022/04/24 08:25:25;;;;;;;;;;;;;;;18.26;42.17;100520.22;7281827;19;153994;-66
2022/04/24 08:27:53;;;;;;;;;;;;;;;18.29;42.59;100518.81;7280763;19;154061;-64
2022/04/24 08:30:20;;;;;;;;;;;;;;;18.27;42.09;100516.31;7280954;19;152615;-61
2022/04/24 08:32:48;;;;;;;;;;;;;;;18.27;42.49;100512.66;7288596;19;153595;-67
2022/04/24 08:35:16;;;;;;;;;;;;;;;18.28;42.62;100511.53;7280187;19;153940;-61
2022/04/24 08:37:44;;;;;;;;;;;;;;;18.28;42.66;100509.56;7280637;19;153265;-65
2022/04/24 08:40:12;;;;;;;;;;;;;;;18.27;42.38;100510.72;7280395;19;155075;-61
2022/04/24 08:42:40;;;;;;;;;;;;;;;18.28;42.63;100503.16;7280238;19;151484;-64
2022/04/24 08:45:12;;;;;;;;;;;;;;;18.30;42.65;100517.69;7281179;19;153479;-65
2022/04/24 08:47:39;;;;;;;;;;;;;;;18.29;42.52;100516.00;7277755;19;154380;-64
2022/04/24 08:50:06;;;;;;;;;;;;;;;18.30;42.65;100514.88;7281885;19;152838;-66
2022/04/24 08:52:33;;;;;;;;;;;;;;;18.28;42.48;100509.56;7284432;19;153738;-65
2022/04/24 08:55:02;;;;;;;;;;;;;;;18.30;42.26;100509.28;7294207;19;151887;-66
2022/04/24 08:57:33;;;;;;;;;;;;;;;18.31;42.72;100508.13;7285160;19;151855;-65
2022/04/24 09:00:00;;;;;;;;;;;;;;;18.32;42.21;100507.00;7284660;19;154368;-63
2022/04/24 09:02:48;;;;;;;;;;;;;;;18.32;42.42;100509.78;7286363;19;152110;-67
2022/04/24 09:05:15;;;;;;;;;;;;;;;18.31;42.43;100516.50;7288025;19;153554;-66
2022/04/24 09:07:46;;;;;;;;;;;;;;;18.33;42.67;100514.25;7285327;19;153510;-63
2022/04/24 09:10:47;;;;;;;;;;;;;;;18.35;42.33;100512.00;7287284;19;151969;-62
2022/04/24 09:13:24;;;;;;;;;;;;;;;18.37;42.40;100520.91;7286070;19;153737;-65
2022/04/24 09:15:54;;;;;;;;;;;;;;;18.38;42.36;100519.78;7293924;19;153411;-63
2022/04/24 09:18:22;;;;;;;;;;;;;;;18.37;42.55;100518.94;7286593;19;153659;-61
2022/04/24 09:20:55;;;;;;;;;;;;;;;18.40;42.63;100523.09;7286542;19;153310;-66
2022/04/24 09:23:32;;;;;;;;;;;;;;;18.41;42.50;100527.53;7283878;19;151905;-62
2022/04/24 09:25:59;;;;;;;;;;;;;;;18.43;42.76;100528.09;7287458;19;152620;-63
2022/04/24 09:28:35;;;;;;;;;;;;;;;18.42;42.49;100524.47;7284846;19;153323;-61
2022/04/24 09:31:02;;;;;;;;;;;;;;;18.44;42.38;100529.75;7287235;19;152095;-66
2022/04/24 09:33:42;;;;;;;;;;;;;;;18.45;42.24;100517.41;7285996;19;153972;-63
2022/04/24 09:36:10;;;;;;;;;;;;;;;18.47;42.41;100541.16;7286435;19;153693;-67
2022/04/24 09:38:41;;;;;;;;;;;;;;;18.48;42.35;100534.44;7294477;19;151726;-65
2022/04/24 09:41:27;;;;;;;;;;;;;;;18.50;42.50;100534.09;7283744;19;153370;-63
2022/04/24 09:43:56;;;;;;;;;;;;;;;18.51;42.72;100532.97;7284690;19;152383;-64
2022/04/24 09:46:28;;;;;;;;;;;;;;;18.50;42.98;100529.34;7286750;19;153467;-62
2022/04/24 09:49:00;;;;;;;;;;;;;;;18.52;42.78;100521.50;7282437;19;153095;-64
2022/04/24 09:51:38;;;;;;;;;;;;;;;18.54;42.74;100524.84;7286418;19;152196;-62
2022/04/24 09:54:05;;;;;;;;;;;;;;;18.58;42.74;100530.66;7283905;19;152427;-63
2022/04/24 09:56:33;;;;;;;;;;;;;;;18.58;42.43;100525.03;7284819;19;155103;-66
2022/04/24 09:58:59;;;;;;;;;;;;;;;18.62;42.48;100528.94;7286509;19;152023;-64
2022/04/24 10:01:29;;;;;;;;;;;;;;;18.61;42.53;100532.84;7292451;19;152281;-62
2022/04/24 10:03:57;;;;;;;;;;;;;;;18.64;42.89;100524.66;7283556;19;152640;-65
2022/04/24 10:06:24;;;;;;;;;;;;;;;18.69;42.64;100528.50;7285811;19;153509;-65
2022/04/24 10:08:51;;;;;;;;;;;;;;;18.69;42.34;100531.31;7284319;19;153087;-65
2022/04/24 10:11:25;;;;;;;;;;;;;;;18.71;42.26;100538.28;7286645;19;151620;-63
2022/04/24 10:13:58;;;;;;;;;;;;;;;18.73;42.46;100535.16;7284214;19;154516;-62
2022/04/24 10:16:47;;;;;;;;;;;;;;;18.75;42.78;100547.72;7282949;19;153495;-63
2022/04/24 10:19:46;;;;;;;;;;;;;;;18.79;42.46;100537.56;7285778;19;152075;-64
2022/04/24 10:22:24;;;;;;;;;;;;;;;18.82;42.59;100548.16;7282087;19;153938;-65
2022/04/24 10:24:58;;;;;;;;;;;;;;;18.84;42.58;100540.28;7292093;19;154234;-62
2022/04/24 10:27:42;;;;;;;;;;;;;;;18.86;42.59;100543.59;7284675;19;153405;-63
2022/04/24 10:30:12;;;;;;;;;;;;;;;18.89;42.42;100547.75;7282388;19;153879;-62
2022/04/24 10:32:44;;;;;;;;;;;;;;;18.89;42.60;100545.78;7285053;19;152261;-66
2022/04/24 10:35:15;;;;;;;;;;;;;;;18.93;42.74;100552.44;7285592;19;153515;-64
2022/04/24 10:37:43;;;;;;;;;;;;;;;18.94;42.49;100551.28;7283803;19;153380;-65
2022/04/24 10:40:17;;;;;;;;;;;;;;;18.97;42.25;100547.88;7282830;19;152003;-67
2022/04/24 10:42:44;;;;;;;;;;;;;;;18.98;42.48;100545.91;7284562;19;152931;-66
2022/04/24 10:45:20;;;;;;;;;;;;;;;19.00;42.29;100557.63;7283915;19;154003;-66
2022/04/24 10:47:49;;;;;;;;;;;;;;;18.99;42.07;100556.78;7291674;19;152442;-68
2022/04/24 10:50:20;;;;;;;;;;;;;;;19.02;41.88;100552.56;7281902;19;153690;-67
2022/04/24 10:52:49;;;;;;;;;;;;;;;19.00;42.29;100550.06;7283794;19;153673;-60
2022/04/24 10:55:16;;;;;;;;;;;;;;;19.03;42.07;100566.22;7284748;19;153650;-65
2022/04/24 10:57:44;;;;;;;;;;;;;;;19.06;41.86;100554.44;7283377;19;154337;-61
2022/04/24 11:00:21;;;;;;;;;;;;;;;19.06;41.92;100553.59;7282264;19;152876;-67
2022/04/24 11:02:49;;;;;;;;;;;;;;;19.12;41.71;100552.38;7285211;19;152757;-65
2022/04/24 11:05:20;;;;;;;;;;;;;;;19.08;41.41;100554.94;7280130;19;153100;-66
2022/04/24 11:07:48;;;;;;;;;;;;;;;19.13;41.60;100555.97;7292037;19;152122;-61
2022/04/24 11:10:20;;;;;;;;;;;;;;;19.10;41.87;100547.06;7280306;19;154666;-62
2022/04/24 11:12:49;;;;;;;;;;;;;;;19.10;41.81;100551.84;7284532;19;151794;-67
2022/04/24 11:15:16;;;;;;;;;;;;;;;19.08;41.62;100556.91;7279645;19;152633;-62
2022/04/24 11:17:43;;;;;;;;;;;;;;;19.07;42.40;100558.91;7283363;19;153291;-62
2022/04/24 11:20:13;;;;;;;;;;;;;;;19.10;41.87;100544.28;7284121;19;153895;-66
2022/04/24 11:22:53;;;;;;;;;;;;;;;19.15;41.70;100556.53;7282584;19;152524;-68
2022/04/24 11:25:24;;;;;;;;;;;;;;;19.17;41.82;100548.66;7283113;19;153471;-67
2022/04/24 11:28:05;;;;;;;;;;;;;;;19.19;41.87;100549.16;7284906;19;151821;-65
2022/04/24 11:30:37;;;;;;;;;;;;;;;19.14;41.77;100563.25;7288289;19;152087;-65
2022/04/24 11:33:05;;;;;;;;;;;;;;;19.15;42.33;100546.16;7284104;19;152269;-65
2022/04/24 11:35:38;;;;;;;;;;;;;;;19.14;42.21;100546.44;7283290;19;152030;-65
2022/04/24 11:38:06;;;;;;;;;;;;;;;19.15;41.71;100548.94;7282625;19;153573;-65
2022/04/24 11:40:33;;;;;;;;;;;;;;;19.17;41.90;100557.84;7283770;19;152103;-65
2022/04/24 11:43:19;;;;;;;;;;;;;;;19.16;41.92;100546.97;7282029;19;154404;-64
2022/04/24 11:51:36;;;;;;;;;;;;;;;19.17;41.83;100548.66;7283152;19;154033;-63
2022/04/24 11:54:15;;;;;;;;;;;;;;;19.13;42.15;100554.00;7287654;19;152165;-63
2022/04/24 11:56:48;;;;;;;;;;;;;;;19.16;41.73;100553.41;7281346;19;154127;-67
2022/04/24 11:59:19;;;;;;;;;;;;;;;19.20;41.66;100542.41;7281311;19;154008;-64
2022/04/24 12:01:56;;;;;;;;;;;;;;;19.22;41.38;100557.75;7283322;19;151684;-65
2022/04/24 12:04:33;;;;;;;;;;;;;;;19.20;41.94;100550.81;7280690;19;154494;-63
2022/04/24 12:07:04;;;;;;;;;;;;;;;19.18;41.66;100539.91;7281910;19;153839;-66
2022/04/24 12:09:32;;;;;;;;;;;;;;;19.17;41.34;100555.06;7280634;19;152267;-66
2022/04/24 12:12:09;;;;;;;;;;;;;;;19.18;41.88;100567.09;7282982;19;152736;-63
2022/04/24 12:14:38;;;;;;;;;;;;;;;19.19;41.72;100550.00;7278499;19;154253;-65
2022/04/24 12:17:07;;;;;;;;;;;;;;;19.22;41.69;100551.31;7290921;19;151594;-63
2022/04/24 12:19:35;;;;;;;;;;;;;;;19.24;41.43;100552.69;7281308;19;153365;-64
2022/04/24 12:22:06;;;;;;;;;;;;;;;19.24;41.44;100558.31;7282790;19;152016;-65
2022/04/24 12:24:43;;;;;;;;;;;;;;;19.22;41.44;100557.75;7281497;19;153756;-63
2022/04/24 12:27:15;;;;;;;;;;;;;;;19.22;41.62;100566.16;7279041;19;152640;-67
2022/04/24 12:29:44;;;;;;;;;;;;;;;19.25;41.92;100559.97;7280526;19;152438;-63
2022/04/24 12:32:15;;;;;;;;;;;;;;;19.26;41.64;100567.22;7282523;19;153512;-63
2022/04/24 12:34:44;;;;;;;;;;;;;;;19.27;41.57;100554.03;7280651;19;152073;-64
2022/04/24 12:37:15;;;;;;;;;;;;;;;19.28;41.52;100555.69;7282364;19;152602;-66
2022/04/24 12:39:50;;;;;;;;;;;;;;;19.26;41.30;100550.41;7286263;19;152692;-66
2022/04/24 12:42:19;;;;;;;;;;;;;;;19.24;41.55;100557.47;7281893;19;151670;-63